Time;durP1;ratioP1;P1;durP2;ratioP2;P2;SDS_P1;SDS_P2;PMS_P1;PMS_P2;Temp;Humidity;BMP_temperature;BMP_pressure;BME280_temperature;BME280_humidity;BME280_pressure;Samples;Min_cycle;Max_cycle;Signal;HPM_P1;HPM_P2
2022/03/18 00:02:17;;;;;;;;;;;;;;;7.96;71.35;102066.53;5014057;28;19996;-64
2022/03/18 00:05:01;;;;;;;;;;;;;;;7.96;71.29;102076.84;5015747;28;20334;-65
2022/03/18 00:07:45;;;;;;;;;;;;;;;7.95;71.36;102077.66;5014803;28;20016;-64
2022/03/18 00:10:29;;;;;;;;;;;;;;;7.95;71.45;102077.66;5015626;28;20016;-64
2022/03/18 00:13:13;;;;;;;;;;;;;;;7.93;71.60;102081.03;5014740;28;19963;-64
2022/03/18 00:15:57;;;;;;;;;;;;;;;7.92;71.44;102086.13;5015358;28;19925;-64
2022/03/18 00:18:41;;;;;;;;;;;;;;;7.91;71.65;102074.88;5015067;28;20419;-64
2022/03/18 00:21:25;;;;;;;;;;;;;;;7.91;71.43;102074.00;5015077;28;19948;-65
2022/03/18 00:24:09;;;;;;;;;;;;;;;7.89;71.51;102076.47;5014565;28;20300;-64
2022/03/18 00:26:53;;;;;;;;;;;;;;;7.89;71.74;102065.28;5013926;28;19924;-65
2022/03/18 00:29:37;;;;;;;;;;;;;;;7.88;71.62;102069.53;5015162;28;19925;-64
2022/03/18 00:32:22;;;;;;;;;;;;;;;7.87;71.42;102069.47;5014173;28;19964;-65
2022/03/18 00:35:07;;;;;;;;;;;;;;;7.86;71.44;102060.81;5014346;28;19970;-65
2022/03/18 00:37:52;;;;;;;;;;;;;;;7.86;71.58;102065.97;5013472;28;19964;-64
2022/03/18 00:40:36;;;;;;;;;;;;;;;7.87;71.40;102072.03;5015007;28;19971;-64
2022/03/18 00:43:20;;;;;;;;;;;;;;;7.86;71.38;102072.84;5014911;28;19967;-65
2022/03/18 00:46:04;;;;;;;;;;;;;;;7.85;71.45;102071.06;5014163;28;19928;-64
2022/03/18 00:52:06;;;;;;;;;;;;;;;7.85;71.53;102081.38;5014361;28;19924;-64
2022/03/18 00:54:50;;;;;;;;;;;;;;;7.84;71.44;102074.44;5013397;28;19987;-67
2022/03/18 00:57:34;;;;;;;;;;;;;;;7.84;71.47;102066.69;5014547;28;19928;-64
2022/03/18 01:00:18;;;;;;;;;;;;;;;7.84;71.63;102072.75;5013486;28;19924;-64
2022/03/18 01:03:02;;;;;;;;;;;;;;;7.83;71.56;102073.56;5014009;28;20039;-64
2022/03/18 01:05:46;;;;;;;;;;;;;;;7.82;71.49;102076.94;5014331;28;20020;-64
2022/03/18 01:08:30;;;;;;;;;;;;;;;7.83;71.53;102077.81;5014529;28;19925;-64
2022/03/18 01:11:14;;;;;;;;;;;;;;;7.82;71.62;102076.94;5013345;28;19929;-64
2022/03/18 01:13:58;;;;;;;;;;;;;;;7.83;71.55;102075.22;5014531;28;19945;-64
2022/03/18 01:16:42;;;;;;;;;;;;;;;7.82;71.61;102078.59;5013782;28;19944;-64
2022/03/18 01:19:26;;;;;;;;;;;;;;;7.81;71.50;102080.31;5013135;28;20472;-64
2022/03/18 01:22:10;;;;;;;;;;;;;;;7.81;71.76;102082.91;5013066;28;19989;-64
2022/03/18 01:24:54;;;;;;;;;;;;;;;7.80;71.68;102080.19;5013627;28;19945;-64
2022/03/18 01:27:38;;;;;;;;;;;;;;;7.79;71.55;102079.31;5013883;28;19971;-64
2022/03/18 01:30:22;;;;;;;;;;;;;;;7.77;71.83;102081.84;5013705;28;19963;-64
2022/03/18 01:33:05;;;;;;;;;;;;;;;7.78;71.58;102091.31;5014200;28;19980;-64
2022/03/18 01:35:49;;;;;;;;;;;;;;;7.77;71.69;102087.00;5013698;28;20324;-64
2022/03/18 01:38:33;;;;;;;;;;;;;;;7.77;71.76;102099.91;5014384;28;19925;-64
2022/03/18 01:41:17;;;;;;;;;;;;;;;7.77;71.50;102102.47;5014011;28;19924;-64
2022/03/18 01:44:01;;;;;;;;;;;;;;;7.76;71.51;102103.28;5013585;28;20395;-65
2022/03/18 01:46:45;;;;;;;;;;;;;;;7.76;71.62;102116.19;5013900;28;20376;-64
2022/03/18 01:49:29;;;;;;;;;;;;;;;7.75;71.60;102116.97;5015366;28;20008;-65
2022/03/18 01:52:13;;;;;;;;;;;;;;;7.75;71.60;102113.50;5017999;28;19924;-64
2022/03/18 01:54:57;;;;;;;;;;;;;;;7.74;71.60;102114.28;5017176;28;19967;-64
2022/03/18 01:57:43;;;;;;;;;;;;;;;7.73;71.56;102107.34;5017997;28;19940;-64
2022/03/18 02:00:27;;;;;;;;;;;;;;;7.75;71.82;102108.34;5017869;28;19925;-64
2022/03/18 02:03:11;;;;;;;;;;;;;;;7.73;71.57;102116.00;5016339;28;20055;-64
2022/03/18 02:05:55;;;;;;;;;;;;;;;7.72;71.71;102109.03;5017859;28;20051;-66
2022/03/18 02:08:40;;;;;;;;;;;;;;;7.72;71.58;102116.78;5017809;28;19971;-64
2022/03/18 02:11:25;;;;;;;;;;;;;;;7.72;71.51;102115.88;5017716;28;19928;-64
2022/03/18 02:14:09;;;;;;;;;;;;;;;7.71;71.54;102121.84;5017462;28;19944;-64
2022/03/18 02:16:53;;;;;;;;;;;;;;;7.71;71.57;102122.75;5017350;28;19924;-64
2022/03/18 02:19:38;;;;;;;;;;;;;;;7.71;71.61;102129.59;5017566;28;19924;-64
2022/03/18 02:22:23;;;;;;;;;;;;;;;7.71;71.68;102132.16;5016195;28;19924;-64
2022/03/18 02:25:09;;;;;;;;;;;;;;;7.71;71.62;102134.75;5016750;28;20060;-65
2022/03/18 02:28:03;;;;;;;;;;;;;;;7.70;71.61;102130.41;5016178;28;19941;-64
2022/03/18 02:30:47;;;;;;;;;;;;;;;7.70;71.80;102130.41;5016417;28;20012;-64
2022/03/18 02:33:31;;;;;;;;;;;;;;;7.70;71.78;102135.56;5016453;28;20375;-64
2022/03/18 02:36:15;;;;;;;;;;;;;;;7.68;71.66;102134.59;5016246;28;19948;-64
2022/03/18 02:38:59;;;;;;;;;;;;;;;7.67;71.86;102133.66;5016906;28;19945;-64
2022/03/18 02:41:43;;;;;;;;;;;;;;;7.67;71.88;102136.25;5016942;28;19924;-64
2022/03/18 02:44:27;;;;;;;;;;;;;;;7.68;71.74;102134.59;5016995;28;20071;-64
2022/03/18 02:47:11;;;;;;;;;;;;;;;7.66;71.82;102137.06;5017012;28;19925;-64
2022/03/18 02:49:55;;;;;;;;;;;;;;;7.66;71.73;102133.59;5016721;28;19929;-65
2022/03/18 02:52:38;;;;;;;;;;;;;;;7.65;71.88;102136.97;5015762;28;19925;-64
2022/03/18 02:55:22;;;;;;;;;;;;;;;7.64;71.60;102141.22;5015601;28;20331;-64
2022/03/18 02:58:06;;;;;;;;;;;;;;;7.65;71.88;102155.03;5015525;28;19924;-64
2022/03/18 03:00:50;;;;;;;;;;;;;;;7.64;71.68;102146.38;5015199;28;19972;-65
2022/03/18 03:03:34;;;;;;;;;;;;;;;7.62;71.94;102146.31;5016703;28;20273;-65
2022/03/18 03:09:21;;;;;;;;;;;;;;;7.62;71.76;102153.16;5016158;28;19924;-64
2022/03/18 03:12:05;;;;;;;;;;;;;;;7.60;71.98;102150.47;5016051;28;20304;-64
2022/03/18 03:14:49;;;;;;;;;;;;;;;7.60;71.67;102163.38;5016294;28;19925;-65
2022/03/18 03:17:32;;;;;;;;;;;;;;;7.59;71.75;102164.16;5016026;28;20067;-64
2022/03/18 03:20:16;;;;;;;;;;;;;;;7.59;71.72;102164.16;5016299;28;19923;-64
2022/03/18 03:23:01;;;;;;;;;;;;;;;7.59;71.73;102158.13;5016328;28;20040;-64
2022/03/18 03:25:45;;;;;;;;;;;;;;;7.59;71.74;102168.47;5014951;28;19947;-65
2022/03/18 03:28:29;;;;;;;;;;;;;;;7.58;71.74;102164.09;5016034;28;19924;-65
2022/03/18 03:31:13;;;;;;;;;;;;;;;7.58;71.59;102171.84;5016183;28;19963;-64
2022/03/18 03:33:56;;;;;;;;;;;;;;;7.56;71.70;102176.88;5015744;28;19924;-64
2022/03/18 03:36:40;;;;;;;;;;;;;;;7.56;71.97;102184.63;5016064;28;20008;-64
2022/03/18 03:39:24;;;;;;;;;;;;;;;7.55;71.57;102185.41;5015011;28;19950;-64
2022/03/18 03:42:08;;;;;;;;;;;;;;;7.55;71.77;102189.69;5016071;28;20004;-65
2022/03/18 03:44:52;;;;;;;;;;;;;;;7.54;71.82;102181.06;5015341;28;19924;-64
2022/03/18 03:47:37;;;;;;;;;;;;;;;7.54;71.88;102191.41;5015787;28;20327;-64
2022/03/18 03:50:21;;;;;;;;;;;;;;;7.53;71.80;102197.34;5015500;28;20265;-64
2022/03/18 03:53:05;;;;;;;;;;;;;;;7.52;71.83;102203.31;5015603;28;20339;-64
2022/03/18 03:55:49;;;;;;;;;;;;;;;7.49;71.73;102195.38;5015642;28;20342;-64
2022/03/18 03:58:33;;;;;;;;;;;;;;;7.49;71.87;102197.94;5014933;28;19924;-64
2022/03/18 04:01:16;;;;;;;;;;;;;;;7.47;71.83;102196.97;5015324;28;20280;-64
2022/03/18 04:04:00;;;;;;;;;;;;;;;7.46;71.69;102190.00;5015161;28;19940;-64
2022/03/18 04:06:44;;;;;;;;;;;;;;;7.46;71.79;102195.16;5015312;28;19928;-64
2022/03/18 04:09:28;;;;;;;;;;;;;;;7.44;71.65;102195.09;5014107;28;19940;-65
2022/03/18 04:12:12;;;;;;;;;;;;;;;7.45;71.35;102198.53;5013916;28;19965;-65
2022/03/18 04:14:56;;;;;;;;;;;;;;;7.45;71.68;102207.19;5014336;28;19924;-65
2022/03/18 04:17:44;;;;;;;;;;;;;;;7.46;71.81;102215.81;5014999;28;19924;-65
2022/03/18 04:20:30;;;;;;;;;;;;;;;7.46;71.50;102221.88;5014305;28;19968;-64
2022/03/18 04:23:14;;;;;;;;;;;;;;;7.45;71.59;102217.50;5013852;28;19929;-64
2022/03/18 04:25:58;;;;;;;;;;;;;;;7.45;71.92;102220.09;5014566;28;19924;-64
2022/03/18 04:28:42;;;;;;;;;;;;;;;7.44;72.01;102213.16;5014546;28;19924;-64
2022/03/18 04:31:26;;;;;;;;;;;;;;;7.44;71.91;102225.13;5014994;28;19925;-64
2022/03/18 04:34:10;;;;;;;;;;;;;;;7.45;71.54;102229.50;5014309;28;19967;-64
2022/03/18 04:36:53;;;;;;;;;;;;;;;7.43;71.96;102221.69;5014649;28;19940;-64
2022/03/18 04:39:37;;;;;;;;;;;;;;;7.43;71.96;102223.34;5013756;28;19924;-64
2022/03/18 04:42:22;;;;;;;;;;;;;;;7.43;71.59;102225.94;5014084;28;19924;-64
2022/03/18 04:45:05;;;;;;;;;;;;;;;7.42;71.61;102226.72;5014146;28;20402;-65
2022/03/18 04:47:49;;;;;;;;;;;;;;;7.40;71.72;102224.06;5014469;28;20435;-64
2022/03/18 04:50:33;;;;;;;;;;;;;;;7.41;71.92;102237.84;5014605;28;20479;-64
2022/03/18 04:53:17;;;;;;;;;;;;;;;7.39;71.56;102232.59;5013917;28;19971;-65
2022/03/18 04:56:01;;;;;;;;;;;;;;;7.39;71.81;102226.56;5014800;28;19967;-65
2022/03/18 04:58:45;;;;;;;;;;;;;;;7.39;71.82;102242.03;5014307;28;20391;-64
2022/03/18 05:01:29;;;;;;;;;;;;;;;7.38;71.80;102233.38;5014050;28;19940;-64
2022/03/18 05:04:13;;;;;;;;;;;;;;;7.38;71.77;102245.41;5014070;28;19971;-64
2022/03/18 05:06:57;;;;;;;;;;;;;;;7.36;71.95;102241.81;5013641;28;19931;-64
2022/03/18 05:09:42;;;;;;;;;;;;;;;7.35;71.90;102248.66;5013319;28;19951;-64
2022/03/18 05:12:29;;;;;;;;;;;;;;;7.35;71.80;102250.38;5014155;28;20491;-64
2022/03/18 05:15:13;;;;;;;;;;;;;;;7.34;71.76;102254.59;5013617;28;19924;-64
2022/03/18 05:17:57;;;;;;;;;;;;;;;7.34;71.60;102249.44;5014307;28;19925;-64
2022/03/18 05:20:41;;;;;;;;;;;;;;;7.34;72.00;102257.19;5013775;28;19963;-64
2022/03/18 05:23:25;;;;;;;;;;;;;;;7.33;71.86;102268.31;5013967;28;19971;-65
2022/03/18 05:26:09;;;;;;;;;;;;;;;7.31;71.71;102263.06;5013678;28;19960;-64
2022/03/18 05:28:53;;;;;;;;;;;;;;;7.31;71.80;102263.06;5013670;28;19923;-64
2022/03/18 05:31:37;;;;;;;;;;;;;;;7.31;71.63;102269.91;5013892;28;19971;-65
2022/03/18 05:34:21;;;;;;;;;;;;;;;7.29;71.52;102285.28;5013888;28;19983;-64
2022/03/18 05:37:06;;;;;;;;;;;;;;;7.28;71.72;102293.81;5012876;28;20395;-64
2022/03/18 05:39:50;;;;;;;;;;;;;;;7.29;72.01;102305.03;5013612;28;19964;-64
2022/03/18 05:42:34;;;;;;;;;;;;;;;7.29;71.85;102310.19;5013932;28;19925;-64
2022/03/18 05:45:18;;;;;;;;;;;;;;;7.28;71.52;102306.69;5013531;28;19924;-64
2022/03/18 05:48:04;;;;;;;;;;;;;;;7.28;72.04;102310.97;5013458;28;19945;-64
2022/03/18 05:50:48;;;;;;;;;;;;;;;7.25;71.75;102314.22;5013304;28;20052;-64
2022/03/18 05:53:32;;;;;;;;;;;;;;;7.25;71.68;102316.81;5012937;28;20072;-64
2022/03/18 05:59:30;;;;;;;;;;;;;;;7.25;71.51;102332.28;5014097;28;19924;-65
2022/03/18 06:02:14;;;;;;;;;;;;;;;7.24;71.62;102337.34;5012640;28;19928;-65
2022/03/18 06:04:58;;;;;;;;;;;;;;;7.23;71.61;102336.47;5013863;28;19992;-64
2022/03/18 06:07:42;;;;;;;;;;;;;;;7.23;72.06;102338.16;5013531;28;19964;-64
2022/03/18 06:13:29;;;;;;;;;;;;;;;7.17;71.85;102343.78;5013746;28;19924;-64
2022/03/18 06:16:13;;;;;;;;;;;;;;;7.15;71.58;102340.22;5013587;28;19979;-64
2022/03/18 06:18:57;;;;;;;;;;;;;;;7.15;71.66;102342.78;5012327;28;19971;-64
2022/03/18 06:21:41;;;;;;;;;;;;;;;7.14;71.68;102334.19;5013655;28;20288;-64
2022/03/18 06:24:25;;;;;;;;;;;;;;;7.16;71.67;102331.69;5013036;28;19924;-65
2022/03/18 06:27:10;;;;;;;;;;;;;;;7.15;71.71;102341.13;5013973;28;19923;-64
2022/03/18 06:29:54;;;;;;;;;;;;;;;7.16;71.67;102339.44;5013237;28;20051;-64
2022/03/18 06:32:38;;;;;;;;;;;;;;;7.17;71.90;102346.38;5012919;28;19941;-64
2022/03/18 06:35:22;;;;;;;;;;;;;;;7.16;71.74;102348.03;5014752;28;19979;-65
2022/03/18 06:38:06;;;;;;;;;;;;;;;7.16;71.78;102348.03;5016548;28;20439;-64
2022/03/18 06:40:50;;;;;;;;;;;;;;;7.16;71.60;102354.91;5017132;28;20391;-64
2022/03/18 06:43:34;;;;;;;;;;;;;;;7.15;72.01;102351.44;5016792;28;20391;-64
2022/03/18 06:46:18;;;;;;;;;;;;;;;7.15;71.72;102361.75;5016693;28;20431;-64
2022/03/18 06:49:02;;;;;;;;;;;;;;;7.15;72.09;102355.69;5016978;28;20412;-64
2022/03/18 06:51:46;;;;;;;;;;;;;;;7.13;71.86;102357.28;5015891;28;19940;-64
2022/03/18 06:54:30;;;;;;;;;;;;;;;7.11;71.74;102358.84;5015593;28;19971;-65
2022/03/18 06:57:13;;;;;;;;;;;;;;;7.06;71.70;102358.53;5016499;28;20420;-64
2022/03/18 06:59:57;;;;;;;;;;;;;;;7.04;71.64;102352.38;5015682;28;20427;-65
2022/03/18 07:02:41;;;;;;;;;;;;;;;7.01;71.53;102358.25;5015296;28;19927;-65
2022/03/18 07:05:27;;;;;;;;;;;;;;;7.00;71.48;102360.72;5015217;28;19924;-64
2022/03/18 07:08:12;;;;;;;;;;;;;;;6.98;71.87;102354.56;5015592;28;19923;-64
2022/03/18 07:10:55;;;;;;;;;;;;;;;6.98;71.50;102360.59;5015661;28;19924;-64
2022/03/18 07:13:42;;;;;;;;;;;;;;;6.97;71.85;102358.81;5016888;28;19972;-65
2022/03/18 07:19:28;;;;;;;;;;;;;;;6.97;71.44;102368.25;5016125;28;20448;-64
2022/03/18 07:22:12;;;;;;;;;;;;;;;6.96;71.50;102367.34;5016440;28;20024;-64
2022/03/18 07:24:56;;;;;;;;;;;;;;;6.97;71.43;102366.56;5016040;28;19924;-64
2022/03/18 07:27:40;;;;;;;;;;;;;;;6.98;71.98;102360.59;5016170;28;20380;-64
2022/03/18 07:30:24;;;;;;;;;;;;;;;7.00;71.96;102360.72;5016127;28;20461;-64
2022/03/18 07:33:09;;;;;;;;;;;;;;;7.00;71.72;102360.72;5016354;28;20011;-64
2022/03/18 07:35:53;;;;;;;;;;;;;;;7.00;72.14;102377.06;5016163;28;19924;-64
2022/03/18 07:38:37;;;;;;;;;;;;;;;7.00;71.81;102371.03;5016174;28;19925;-64
2022/03/18 07:41:20;;;;;;;;;;;;;;;6.99;71.71;102375.28;5016018;28;19923;-65
2022/03/18 07:44:04;;;;;;;;;;;;;;;7.00;71.96;102360.72;5014965;28;19928;-64
2022/03/18 07:46:48;;;;;;;;;;;;;;;6.99;71.72;102353.78;5015609;28;19928;-64
2022/03/18 07:49:32;;;;;;;;;;;;;;;6.99;71.97;102357.25;5015100;28;19924;-63
2022/03/18 07:52:16;;;;;;;;;;;;;;;6.98;71.69;102355.44;5015550;28;19944;-64
2022/03/18 07:55:00;;;;;;;;;;;;;;;6.97;71.73;102363.09;5015653;28;19924;-64
2022/03/18 07:57:44;;;;;;;;;;;;;;;6.96;71.82;102359.59;5016001;28;19924;-64
2022/03/18 08:00:28;;;;;;;;;;;;;;;6.96;71.64;102363.88;5015399;28;19971;-64
2022/03/18 08:03:12;;;;;;;;;;;;;;;6.93;72.13;102361.09;5014000;28;19967;-64
2022/03/18 08:05:56;;;;;;;;;;;;;;;6.94;71.77;102362.88;5015466;28;19963;-63
2022/03/18 08:08:40;;;;;;;;;;;;;;;6.93;72.06;102367.13;5015553;28;19924;-63
2022/03/18 08:11:24;;;;;;;;;;;;;;;6.92;71.96;102378.25;5015611;28;19924;-64
2022/03/18 08:14:08;;;;;;;;;;;;;;;6.92;71.69;102383.41;5014071;28;20383;-65
2022/03/18 08:16:52;;;;;;;;;;;;;;;6.91;71.87;102379.03;5015095;28;19924;-64
2022/03/18 08:19:36;;;;;;;;;;;;;;;6.89;71.73;102385.78;5014361;28;19925;-64
2022/03/18 08:22:21;;;;;;;;;;;;;;;6.90;71.82;102395.31;5015074;28;19923;-64
2022/03/18 08:25:05;;;;;;;;;;;;;;;6.91;72.09;102397.09;5013763;28;20104;-64
2022/03/18 08:27:49;;;;;;;;;;;;;;;6.91;71.83;102389.34;5014805;28;19923;-64
2022/03/18 08:30:34;;;;;;;;;;;;;;;6.92;72.00;102404.03;5014540;28;19924;-64
2022/03/18 08:33:19;;;;;;;;;;;;;;;6.93;71.89;102407.50;5015240;28;19923;-63
2022/03/18 08:36:04;;;;;;;;;;;;;;;6.94;71.94;102417.03;5014955;28;20419;-64
2022/03/18 08:38:48;;;;;;;;;;;;;;;6.95;71.57;102411.94;5014674;28;19983;-64
2022/03/18 08:41:32;;;;;;;;;;;;;;;6.94;71.67;102409.28;5014740;28;19923;-63
2022/03/18 08:44:19;;;;;;;;;;;;;;;6.94;71.60;102422.19;5014747;28;20324;-64
2022/03/18 08:47:03;;;;;;;;;;;;;;;6.96;71.54;102421.47;5014074;28;19967;-64
2022/03/18 08:49:47;;;;;;;;;;;;;;;6.97;71.78;102431.00;5013725;28;19967;-63
2022/03/18 08:52:31;;;;;;;;;;;;;;;6.99;71.56;102434.59;5013096;28;19925;-63
2022/03/18 08:55:16;;;;;;;;;;;;;;;7.00;71.58;102432.94;5014545;28;19984;-64
2022/03/18 08:57:59;;;;;;;;;;;;;;;7.01;71.45;102427.84;5013556;28;19924;-63
2022/03/18 09:00:43;;;;;;;;;;;;;;;7.05;71.37;102440.97;5013460;28;19940;-63
2022/03/18 09:03:27;;;;;;;;;;;;;;;7.05;71.49;102440.97;5014806;28;19963;-64
2022/03/18 09:06:11;;;;;;;;;;;;;;;7.07;71.50;102440.28;5014172;28;20431;-64
2022/03/18 09:09:02;;;;;;;;;;;;;;;7.07;71.47;102441.97;5013630;28;20011;-64
2022/03/18 09:11:46;;;;;;;;;;;;;;;7.08;71.44;102452.38;5013806;28;19952;-63
2022/03/18 09:14:30;;;;;;;;;;;;;;;7.13;71.33;102457.84;5014230;28;20391;-64
2022/03/18 09:17:14;;;;;;;;;;;;;;;7.12;71.75;102459.56;5014316;28;19923;-64
2022/03/18 09:19:57;;;;;;;;;;;;;;;7.16;71.59;102458.06;5014012;28;19985;-63
2022/03/18 09:22:41;;;;;;;;;;;;;;;7.17;71.49;102457.28;5014234;28;19925;-63
2022/03/18 09:25:25;;;;;;;;;;;;;;;7.19;71.89;102459.94;5013673;28;20383;-63
2022/03/18 09:28:09;;;;;;;;;;;;;;;7.23;71.41;102459.38;5014028;28;19924;-64
2022/03/18 09:30:54;;;;;;;;;;;;;;;7.28;71.21;102466.63;5013021;28;19925;-63
2022/03/18 09:33:37;;;;;;;;;;;;;;;7.30;71.49;102465.06;5013355;28;19925;-64
2022/03/18 09:36:21;;;;;;;;;;;;;;;7.31;71.35;102463.38;5013787;28;19924;-63
2022/03/18 09:39:05;;;;;;;;;;;;;;;7.33;71.20;102459.19;5013443;28;19927;-63
2022/03/18 09:41:49;;;;;;;;;;;;;;;7.35;71.42;102464.50;5014336;28;19924;-63
2022/03/18 09:44:37;;;;;;;;;;;;;;;7.36;71.13;102463.69;5013650;28;19963;-63
2022/03/18 09:47:22;;;;;;;;;;;;;;;7.35;71.13;102469.66;5013041;28;19963;-64
2022/03/18 09:50:06;;;;;;;;;;;;;;;7.37;71.18;102463.78;5012733;28;19940;-64
2022/03/18 09:52:50;;;;;;;;;;;;;;;7.41;71.32;102472.63;5012681;28;20308;-64
2022/03/18 09:55:35;;;;;;;;;;;;;;;7.39;71.16;102474.22;5013657;28;19932;-63
2022/03/18 09:58:22;;;;;;;;;;;;;;;7.40;70.91;102479.47;5013485;28;20422;-64
2022/03/18 10:01:06;;;;;;;;;;;;;;;7.42;71.16;102485.66;5013684;28;20438;-63
2022/03/18 10:03:50;;;;;;;;;;;;;;;7.42;71.34;102483.06;5013141;28;20019;-63
2022/03/18 10:06:34;;;;;;;;;;;;;;;7.44;71.13;102483.16;5013859;28;19924;-63
2022/03/18 10:09:26;;;;;;;;;;;;;;;7.43;70.77;102487.44;5012961;28;20422;-63
2022/03/18 10:12:30;;;;;;;;;;;;;;;7.44;70.52;102489.22;5016508;28;19944;-63
2022/03/18 10:15:14;;;;;;;;;;;;;;;7.46;70.80;102481.59;5017756;28;19925;-64
2022/03/18 10:17:58;;;;;;;;;;;;;;;7.48;70.64;102474.84;5017468;28;20019;-64
2022/03/18 10:20:45;;;;;;;;;;;;;;;7.49;70.56;102486.03;5017015;28;19925;-64
2022/03/18 10:23:29;;;;;;;;;;;;;;;7.51;70.44;102481.88;5016524;28;19925;-68
2022/03/18 10:26:14;;;;;;;;;;;;;;;7.51;70.71;102480.22;5017524;28;19924;-63
2022/03/18 10:29:00;;;;;;;;;;;;;;;7.53;70.49;102478.63;5017573;28;20014;-65
2022/03/18 10:31:58;;;;;;;;;;;;;;;7.52;70.54;102476.84;5016023;28;19924;-64
2022/03/18 10:37:47;;;;;;;;;;;;;;;7.53;70.21;102478.63;5016645;28;20443;-63
2022/03/18 10:40:33;;;;;;;;;;;;;;;7.51;70.20;102480.22;5015881;28;19924;-64
2022/03/18 10:43:17;;;;;;;;;;;;;;;7.53;70.30;102480.31;5016753;28;19971;-64
2022/03/18 10:46:02;;;;;;;;;;;;;;;7.57;69.96;102479.72;5016753;28;19924;-63
2022/03/18 10:49:02;;;;;;;;;;;;;;;7.54;70.06;102474.34;5015623;28;20381;-64
2022/03/18 10:51:46;;;;;;;;;;;;;;;7.56;70.01;102475.34;5015900;28;19925;-63
2022/03/18 10:54:30;;;;;;;;;;;;;;;7.58;69.95;102482.41;5015701;28;19925;-64
2022/03/18 10:57:17;;;;;;;;;;;;;;;7.58;69.86;102482.41;5016987;28;19963;-64
2022/03/18 11:00:01;;;;;;;;;;;;;;;7.61;69.84;102492.06;5015614;28;20415;-64
2022/03/18 11:02:48;;;;;;;;;;;;;;;7.61;69.96;102485.19;5016425;28;20438;-64
2022/03/18 11:05:37;;;;;;;;;;;;;;;7.62;69.79;102486.09;5015057;28;20008;-64
2022/03/18 11:08:22;;;;;;;;;;;;;;;7.64;69.53;102486.19;5015852;28;20391;-63
2022/03/18 11:11:10;;;;;;;;;;;;;;;7.62;69.65;102478.38;5015872;28;20387;-63
2022/03/18 11:14:00;;;;;;;;;;;;;;;7.65;69.66;102482.81;5016706;28;19924;-64
2022/03/18 11:16:44;;;;;;;;;;;;;;;7.67;69.60;102492.44;5015749;28;20480;-63
2022/03/18 11:19:29;;;;;;;;;;;;;;;7.68;69.57;102488.19;5016682;28;20323;-63
2022/03/18 11:22:16;;;;;;;;;;;;;;;7.69;69.42;102496.03;5016105;28;20288;-64
2022/03/18 11:25:02;;;;;;;;;;;;;;;7.68;69.56;102490.78;5015272;28;20321;-64
2022/03/18 11:27:46;;;;;;;;;;;;;;;7.68;69.27;102493.38;5015120;28;19944;-63
2022/03/18 11:30:36;;;;;;;;;;;;;;;7.68;69.38;102498.53;5015999;28;19947;-63
2022/03/18 11:33:21;;;;;;;;;;;;;;;7.70;69.04;102491.78;5014949;28;20034;-63
2022/03/18 11:36:06;;;;;;;;;;;;;;;7.71;69.11;102493.53;5015024;28;19944;-63
2022/03/18 11:38:52;;;;;;;;;;;;;;;7.73;69.13;102481.63;5014733;28;19925;-64
2022/03/18 11:41:46;;;;;;;;;;;;;;;7.71;69.12;102488.38;5016039;28;20446;-64
2022/03/18 11:44:36;;;;;;;;;;;;;;;7.72;69.22;102479.84;5014575;28;19963;-63
2022/03/18 11:47:23;;;;;;;;;;;;;;;7.74;69.05;102484.34;5015304;28;19948;-64
2022/03/18 11:50:30;;;;;;;;;;;;;;;7.74;68.80;102484.34;5014897;28;19925;-64
2022/03/18 11:53:34;;;;;;;;;;;;;;;7.74;68.60;102483.44;5015496;28;19947;-64
2022/03/18 11:56:22;;;;;;;;;;;;;;;7.73;68.63;102473.88;5015787;28;19944;-64
2022/03/18 11:59:24;;;;;;;;;;;;;;;7.72;69.14;102469.53;5014475;28;19924;-64
2022/03/18 12:02:14;;;;;;;;;;;;;;;7.75;68.55;102470.63;5015767;28;19971;-63
2022/03/18 12:04:59;;;;;;;;;;;;;;;7.74;68.61;102466.28;5015392;28;19971;-63
2022/03/18 12:07:51;;;;;;;;;;;;;;;7.75;68.29;102456.81;5014347;28;19984;-64
2022/03/18 12:10:37;;;;;;;;;;;;;;;7.75;68.38;102467.16;5014269;28;19940;-64
2022/03/18 12:13:21;;;;;;;;;;;;;;;7.76;68.39;102456.03;5015428;28;19943;-63
2022/03/18 12:16:04;;;;;;;;;;;;;;;7.76;68.22;102454.34;5015185;28;19924;-63
2022/03/18 12:18:57;;;;;;;;;;;;;;;7.76;68.48;102456.03;5014992;28;19982;-64
2022/03/18 12:21:42;;;;;;;;;;;;;;;7.77;68.61;102452.66;5014255;28;20292;-64
2022/03/18 12:24:28;;;;;;;;;;;;;;;7.78;68.55;102451.88;5014329;28;20332;-64
2022/03/18 12:27:12;;;;;;;;;;;;;;;7.79;68.35;102440.75;5013826;28;19924;-63
2022/03/18 12:30:03;;;;;;;;;;;;;;;7.80;68.39;102449.38;5014789;28;19947;-63
2022/03/18 12:32:51;;;;;;;;;;;;;;;7.80;67.91;102450.28;5013721;28;19924;-63
2022/03/18 12:35:36;;;;;;;;;;;;;;;7.81;67.77;102448.59;5014416;28;20309;-64
2022/03/18 12:38:21;;;;;;;;;;;;;;;7.81;67.89;102446.91;5014789;28;19964;-64
2022/03/18 12:41:06;;;;;;;;;;;;;;;7.81;68.00;102446.00;5014886;28;19944;-64
2022/03/18 12:43:49;;;;;;;;;;;;;;;7.81;68.13;102441.75;5013448;28;19968;-65
2022/03/18 12:46:34;;;;;;;;;;;;;;;7.80;68.19;102441.63;5014258;28;19923;-64
2022/03/18 12:49:18;;;;;;;;;;;;;;;7.80;68.13;102439.97;5013736;28;19924;-63
2022/03/18 12:52:07;;;;;;;;;;;;;;;7.81;68.15;102436.59;5014943;28;19924;-64
2022/03/18 12:55:10;;;;;;;;;;;;;;;7.83;68.16;102441.84;5013803;28;19923;-63
2022/03/18 12:57:54;;;;;;;;;;;;;;;7.84;68.14;102431.63;5014336;28;19963;-64
2022/03/18 13:00:42;;;;;;;;;;;;;;;7.84;67.83;102429.03;5014271;28;19971;-63
2022/03/18 13:03:28;;;;;;;;;;;;;;;7.85;67.91;102424.75;5013135;28;19995;-64
2022/03/18 13:06:18;;;;;;;;;;;;;;;7.86;67.95;102413.66;5014014;28;19925;-63
2022/03/18 13:09:08;;;;;;;;;;;;;;;7.87;67.93;102418.00;5014113;28;20344;-64
2022/03/18 13:11:51;;;;;;;;;;;;;;;7.86;67.99;102406.78;5013594;28;20292;-64
2022/03/18 13:14:37;;;;;;;;;;;;;;;7.88;67.50;102414.63;5013775;28;19954;-64
2022/03/18 13:17:30;;;;;;;;;;;;;;;7.88;67.51;102415.53;5013105;28;19928;-64
2022/03/18 13:20:27;;;;;;;;;;;;;;;7.90;67.53;102410.47;5013487;28;19944;-64
2022/03/18 13:23:11;;;;;;;;;;;;;;;7.90;67.44;102408.78;5014068;28;19975;-64
2022/03/18 13:25:55;;;;;;;;;;;;;;;7.90;67.51;102394.97;5014249;28;19924;-64
2022/03/18 13:28:40;;;;;;;;;;;;;;;7.90;67.29;102401.03;5013257;28;19963;-64
2022/03/18 13:34:27;;;;;;;;;;;;;;;7.92;67.10;102396.84;5014116;28;19924;-64
2022/03/18 13:37:11;;;;;;;;;;;;;;;7.92;67.43;102385.66;5013006;28;20392;-64
2022/03/18 13:40:06;;;;;;;;;;;;;;;7.93;67.36;102400.34;5013859;28;20015;-64
2022/03/18 13:42:58;;;;;;;;;;;;;;;7.94;67.28;102396.97;5014022;28;19924;-64
2022/03/18 13:45:42;;;;;;;;;;;;;;;7.95;67.55;102403.00;5016665;28;20019;-64
2022/03/18 13:48:27;;;;;;;;;;;;;;;7.95;67.48;102396.16;5016866;28;19925;-64
2022/03/18 13:51:14;;;;;;;;;;;;;;;7.96;67.22;102400.53;5018127;28;19963;-64
2022/03/18 13:54:16;;;;;;;;;;;;;;;7.96;67.18;102392.78;5018123;28;19963;-64
2022/03/18 13:57:00;;;;;;;;;;;;;;;7.97;67.11;102383.34;5016651;28;19924;-64
2022/03/18 13:59:51;;;;;;;;;;;;;;;7.98;66.68;102387.72;5017342;28;19924;-64
2022/03/18 14:02:36;;;;;;;;;;;;;;;7.99;66.69;102392.09;5017157;28;19928;-64
2022/03/18 14:05:20;;;;;;;;;;;;;;;8.00;66.49;102378.38;5016487;28;19924;-64
2022/03/18 14:08:07;;;;;;;;;;;;;;;8.01;66.50;102378.47;5016676;28;20396;-64
2022/03/18 14:10:50;;;;;;;;;;;;;;;8.00;66.49;102368.94;5016589;28;19924;-64
2022/03/18 14:13:34;;;;;;;;;;;;;;;8.02;66.64;102380.25;5016366;28;19924;-64
2022/03/18 14:16:20;;;;;;;;;;;;;;;8.03;66.49;102381.16;5017449;28;19940;-64
2022/03/18 14:19:04;;;;;;;;;;;;;;;8.03;66.34;102371.72;5016500;28;19925;-64
2022/03/18 14:21:48;;;;;;;;;;;;;;;8.04;66.63;102364.84;5017725;28;20333;-64
2022/03/18 14:24:31;;;;;;;;;;;;;;;8.04;66.42;102362.28;5016945;28;19924;-64
2022/03/18 14:27:15;;;;;;;;;;;;;;;8.04;66.61;102367.44;5016115;28;20023;-64
2022/03/18 14:30:13;;;;;;;;;;;;;;;8.05;66.14;102366.66;5017096;28;19939;-64
2022/03/18 14:32:59;;;;;;;;;;;;;;;8.06;66.13;102352.94;5016230;28;19925;-64
2022/03/18 14:35:43;;;;;;;;;;;;;;;8.06;66.46;102358.09;5016341;28;19939;-64
2022/03/18 14:38:27;;;;;;;;;;;;;;;8.06;66.02;102356.44;5016687;28;20063;-64
2022/03/18 14:41:12;;;;;;;;;;;;;;;8.07;65.67;102354.72;5017275;28;19925;-65
2022/03/18 14:43:56;;;;;;;;;;;;;;;8.07;66.02;102354.72;5016410;28;20400;-64